Cacapava do Sul, Brazil
Current Conditions -  °F | °C
As of 8:30 AM on Friday 24 Oct 2014 (Local Time) from SBSM Reporting Station
Light Fog Light Fog  
Wind Chill: 63°   Ceiling: 200
Heat Index: 63°   Visibility: 6mi
Dew Point: 61°   Wind: 5mph
Humidity: 94%   Direction: 90°E
Pressure: 29.97"   Gusts: NA
Location:  30.51°S, 53.49°W
Report Text: SBSM 241030Z 09004KT 9000 2000NE BCFG BKN002 17/16 Q1015
Loading
Personal Weather Stations






























Interactive Weather Map
Tropical Storm Tracking
New forecast layout! Learn more

10-Day Weather Forecast

Advertisements
Track Severe Weather on mobile